createdAt,value
2019-01-04T00:00:42.261Z,3.23
2019-01-04T00:01:42.271Z,3.21
2019-01-04T00:02:42.285Z,3.08
2019-01-04T00:03:42.301Z,3.07
2019-01-04T00:04:42.312Z,3.14
2019-01-04T00:05:42.325Z,3.11
2019-01-04T00:06:42.340Z,3.21
2019-01-04T00:07:42.355Z,3.14
2019-01-04T00:08:42.368Z,3.08
2019-01-04T00:09:42.378Z,3.08
2019-01-04T00:10:42.402Z,3.10
2019-01-04T00:11:42.409Z,3.14
2019-01-04T00:12:42.422Z,3.08
2019-01-04T00:13:42.431Z,3.11
2019-01-04T00:14:42.447Z,3.07
2019-01-04T00:15:42.461Z,3.10
2019-01-04T00:16:42.476Z,3.07
2019-01-04T00:17:42.486Z,3.07
2019-01-04T00:18:42.501Z,3.01
2019-01-04T00:19:42.515Z,3.04
2019-01-04T00:20:42.530Z,2.97
2019-01-04T00:21:42.546Z,2.93
2019-01-04T00:22:42.552Z,2.97
2019-01-04T00:23:42.569Z,2.95
2019-01-04T00:24:42.582Z,3.01
2019-01-04T00:25:42.592Z,3.01
2019-01-04T00:26:42.606Z,2.97
2019-01-04T00:27:42.622Z,3.00
2019-01-04T00:28:42.636Z,3.01
2019-01-04T00:29:42.646Z,3.04
2019-01-04T00:30:42.661Z,3.00
2019-01-04T00:31:42.675Z,3.01
2019-01-04T00:32:42.689Z,3.01
2019-01-04T00:33:42.700Z,3.01
2019-01-04T00:34:42.715Z,3.11
2019-01-04T00:35:42.730Z,3.07
2019-01-04T00:36:42.740Z,3.07
2019-01-04T00:37:42.753Z,2.98
2019-01-04T00:38:42.769Z,3.03
2019-01-04T00:39:42.780Z,3.07
2019-01-04T00:40:42.796Z,3.03
2019-01-04T00:41:42.806Z,2.98
2019-01-04T00:42:42.820Z,2.98
2019-01-04T00:43:42.835Z,3.03
2019-01-04T00:44:42.849Z,3.07
2019-01-04T00:45:42.860Z,3.00
2019-01-04T00:46:42.875Z,3.10
2019-01-04T00:47:42.887Z,3.04
2019-01-04T00:48:42.902Z,3.00
2019-01-04T00:49:42.913Z,2.97
2019-01-04T00:50:42.929Z,3.03
2019-01-04T00:51:42.940Z,3.03
2019-01-04T00:52:42.953Z,2.97
2019-01-04T00:53:42.970Z,3.01
2019-01-04T00:54:42.980Z,3.00
2019-01-04T00:55:42.993Z,2.89
2019-01-04T00:56:43.011Z,2.97
2019-01-04T00:57:43.021Z,3.00
2019-01-04T00:58:43.035Z,2.95
2019-01-04T00:59:43.047Z,2.89
2019-01-04T01:00:43.062Z,2.95
2019-01-04T01:01:43.075Z,2.98
2019-01-04T01:02:43.088Z,2.93
2019-01-04T01:03:43.106Z,2.92
2019-01-04T01:04:43.113Z,2.97
2019-01-04T01:05:43.129Z,2.92
2019-01-04T01:06:43.139Z,2.87
2019-01-04T01:07:43.154Z,2.83
2019-01-04T01:08:43.168Z,2.85
2019-01-04T01:09:43.179Z,2.83
2019-01-04T01:10:43.192Z,2.83
2019-01-04T01:11:43.208Z,2.89
2019-01-04T01:12:43.222Z,2.83
2019-01-04T01:13:43.236Z,2.83
2019-01-04T01:14:43.250Z,2.85
2019-01-04T01:15:43.262Z,2.85
2019-01-04T01:16:43.275Z,2.82
2019-01-04T01:17:43.289Z,2.89
2019-01-04T01:18:43.301Z,2.77
2019-01-04T01:19:43.312Z,2.82
2019-01-04T01:20:43.327Z,2.89
2019-01-04T01:21:43.341Z,2.82
2019-01-04T01:22:43.351Z,2.67
2019-01-04T01:23:43.365Z,2.85
2019-01-04T01:24:43.379Z,2.71
2019-01-04T01:25:43.391Z,2.71
2019-01-04T01:26:43.407Z,2.74
2019-01-04T01:27:43.420Z,2.69
2019-01-04T01:28:43.431Z,2.72
2019-01-04T01:29:43.446Z,2.67
2019-01-04T01:30:43.459Z,2.71
2019-01-04T01:31:43.473Z,2.75
2019-01-04T01:32:43.490Z,2.72
2019-01-04T01:33:43.497Z,2.75
2019-01-04T01:34:43.511Z,2.80
2019-01-04T01:35:43.526Z,2.80
2019-01-04T01:36:43.539Z,2.80
2019-01-04T01:37:43.550Z,2.85
2019-01-04T01:38:43.563Z,2.85
2019-01-04T01:39:43.581Z,2.82
2019-01-04T01:40:43.592Z,2.85
2019-01-04T01:41:43.605Z,2.86
2019-01-04T01:42:43.623Z,2.83
2019-01-04T01:43:43.630Z,2.85
2019-01-04T01:44:43.646Z,2.97
2019-01-04T01:45:43.657Z,2.93
2019-01-04T01:46:43.673Z,2.89
2019-01-04T01:47:43.683Z,2.93
2019-01-04T01:48:43.697Z,2.93
2019-01-04T01:49:43.709Z,2.92
2019-01-04T01:50:43.723Z,2.86
2019-01-04T01:51:43.740Z,2.97
2019-01-04T01:52:43.751Z,2.86
2019-01-04T01:53:43.763Z,2.87
2019-01-04T01:54:43.779Z,2.79
2019-01-04T01:55:43.790Z,2.90
2019-01-04T01:56:43.807Z,2.95
2019-01-04T01:57:43.818Z,3.00
2019-01-04T01:58:43.830Z,2.89
2019-01-04T01:59:43.844Z,2.92
2019-01-04T02:00:43.858Z,2.87
2019-01-04T02:01:43.870Z,2.95
2019-01-04T02:02:43.883Z,3.00
2019-01-04T02:03:43.900Z,2.97
2019-01-04T02:04:43.913Z,2.87
2019-01-04T02:05:43.925Z,2.85
2019-01-04T02:06:43.939Z,2.82
2019-01-04T02:07:43.950Z,2.82
2019-01-04T02:08:44.067Z,2.77
2019-01-04T02:09:43.980Z,2.80
2019-01-04T02:10:43.990Z,2.79
2019-01-04T02:11:44.005Z,2.77
2019-01-04T02:12:44.019Z,2.83
2019-01-04T02:13:44.032Z,2.82
2019-01-04T02:14:44.043Z,2.83
2019-01-04T02:15:44.258Z,2.83
2019-01-04T02:16:44.073Z,2.75
2019-01-04T02:17:44.086Z,2.80
2019-01-04T02:18:44.247Z,2.77
2019-01-04T02:19:44.113Z,2.74
2019-01-04T02:20:44.124Z,2.72
2019-01-04T02:21:44.240Z,2.67
2019-01-04T02:22:44.150Z,2.64
2019-01-04T02:23:44.166Z,2.68
2019-01-04T02:24:44.277Z,2.62
2019-01-04T02:25:44.191Z,2.57
2019-01-04T02:26:44.203Z,2.67
2019-01-04T02:27:44.220Z,2.67
2019-01-04T02:28:44.233Z,2.57
2019-01-04T02:29:44.243Z,2.49
2019-01-04T02:30:44.256Z,2.47
2019-01-04T02:31:44.269Z,2.54
2019-01-04T02:32:44.287Z,2.46
2019-01-04T02:33:44.295Z,2.61
2019-01-04T02:34:44.312Z,2.53
2019-01-04T02:35:44.325Z,2.47
2019-01-04T02:36:44.341Z,2.51
2019-01-04T02:37:44.354Z,2.51
2019-01-04T02:38:44.370Z,2.61
2019-01-04T02:39:44.377Z,2.53
2019-01-04T02:40:44.394Z,2.53
2019-01-04T02:41:44.403Z,2.50
2019-01-04T02:42:44.416Z,2.44
2019-01-04T02:43:44.430Z,2.47
2019-01-04T02:44:44.443Z,2.53
2019-01-04T02:45:44.454Z,2.53
2019-01-04T02:46:44.467Z,2.47
2019-01-04T02:47:44.482Z,2.53
2019-01-04T02:48:44.748Z,2.46
2019-01-04T02:49:44.508Z,2.46
2019-01-04T02:50:44.520Z,2.44
2019-01-04T02:51:44.536Z,2.44
2019-01-04T02:52:44.547Z,2.49
2019-01-04T02:53:44.562Z,2.49
2019-01-04T02:54:44.583Z,2.38
2019-01-04T02:55:44.588Z,2.36
2019-01-04T02:56:44.601Z,2.44
2019-01-04T02:57:44.612Z,2.38
2019-01-04T02:58:44.627Z,2.29
2019-01-04T02:59:44.644Z,2.31
2019-01-04T03:00:44.651Z,2.31
2019-01-04T03:01:44.668Z,2.31
2019-01-04T03:02:44.680Z,2.32
2019-01-04T03:03:44.690Z,2.29
2019-01-04T03:04:44.706Z,2.25
2019-01-04T03:05:44.721Z,2.26
2019-01-04T03:06:44.730Z,2.25
2019-01-04T03:07:44.743Z,2.20
2019-01-04T03:08:44.757Z,2.25
2019-01-04T03:09:44.771Z,2.36
2019-01-04T03:10:44.784Z,2.32
2019-01-04T03:11:44.794Z,2.33
2019-01-04T03:12:44.811Z,2.28
2019-01-04T03:13:44.821Z,2.25
2019-01-04T03:14:44.835Z,2.20
2019-01-04T03:15:44.850Z,2.20
2019-01-04T03:16:44.860Z,2.24
2019-01-04T03:17:44.884Z,2.13
2019-01-04T03:18:44.889Z,2.25
2019-01-04T03:19:44.903Z,2.24
2019-01-04T03:20:44.912Z,2.22
2019-01-04T03:21:44.924Z,2.24
2019-01-04T03:22:44.938Z,2.31
2019-01-04T03:23:44.955Z,2.20
2019-01-04T03:24:44.971Z,2.17
2019-01-04T03:25:44.978Z,2.17
2019-01-04T03:26:44.998Z,2.22
2019-01-04T03:27:45.005Z,2.29
2019-01-04T03:28:45.017Z,2.15
2019-01-04T03:29:45.030Z,2.25
2019-01-04T03:30:45.055Z,2.29
2019-01-04T03:31:45.057Z,2.17
2019-01-04T03:32:45.074Z,2.28
2019-01-04T03:33:45.082Z,2.26
2019-01-04T03:34:45.100Z,2.25
2019-01-04T03:35:45.109Z,2.31
2019-01-04T03:36:45.121Z,2.11
2019-01-04T03:37:45.133Z,2.18
2019-01-04T03:38:45.145Z,2.20
2019-01-04T03:39:45.158Z,2.29
2019-01-04T03:40:45.173Z,2.28
2019-01-04T03:41:45.185Z,2.28
2019-01-04T03:42:45.196Z,2.31
2019-01-04T03:43:45.210Z,2.43
2019-01-04T03:44:45.225Z,2.25
2019-01-04T03:45:45.239Z,2.31
2019-01-04T03:46:45.248Z,2.29
2019-01-04T03:47:45.262Z,2.32
2019-01-04T03:48:45.276Z,2.35
2019-01-04T03:49:45.294Z,2.29
2019-01-04T03:50:45.316Z,2.39
2019-01-04T03:51:45.316Z,2.31
2019-01-04T03:52:45.327Z,2.42
2019-01-04T03:53:45.348Z,2.36
2019-01-04T03:54:45.352Z,2.29
2019-01-04T03:55:45.365Z,2.43
2019-01-04T03:56:45.382Z,2.32
2019-01-04T03:57:45.391Z,2.33
2019-01-04T03:58:45.441Z,2.38
2019-01-04T03:59:45.419Z,2.39
2019-01-04T04:00:45.431Z,2.33
2019-01-04T04:01:45.446Z,2.38
2019-01-04T04:02:45.459Z,2.46
2019-01-04T04:03:45.469Z,2.46
2019-01-04T04:04:45.485Z,2.42
2019-01-04T04:05:45.498Z,2.47
2019-01-04T04:06:45.511Z,2.46
2019-01-04T04:07:45.521Z,2.49
2019-01-04T04:08:45.534Z,2.49
2019-01-04T04:09:45.547Z,2.50
2019-01-04T04:10:45.565Z,2.49
2019-01-04T04:11:45.574Z,2.53
2019-01-04T04:12:45.587Z,2.54
2019-01-04T04:13:45.601Z,2.53
2019-01-04T04:14:45.616Z,2.49
2019-01-04T04:15:45.628Z,2.54
2019-01-04T04:16:45.643Z,2.54
2019-01-04T04:17:45.656Z,2.64
2019-01-04T04:18:45.667Z,2.54
2019-01-04T04:19:45.682Z,2.50
2019-01-04T04:20:45.693Z,2.64
2019-01-04T04:21:45.705Z,2.69
2019-01-04T04:22:45.721Z,2.64
2019-01-04T04:23:45.733Z,2.69
2019-01-04T04:24:45.754Z,2.62
2019-01-04T04:25:45.761Z,2.71
2019-01-04T04:26:45.779Z,2.71
2019-01-04T04:27:45.800Z,2.72
2019-01-04T04:28:45.802Z,2.67
2019-01-04T04:29:45.820Z,2.65
2019-01-04T04:30:45.825Z,2.65
2019-01-04T04:31:45.839Z,2.67
2019-01-04T04:32:45.852Z,2.77
2019-01-04T04:33:45.867Z,2.77
2019-01-04T04:34:47.130Z,2.75
2019-01-04T04:35:45.895Z,2.80
2019-01-04T04:36:45.908Z,2.82
2019-01-04T04:37:45.922Z,2.72
2019-01-04T04:38:45.934Z,2.82
2019-01-04T04:39:45.955Z,2.79
2019-01-04T04:40:45.959Z,2.85
2019-01-04T04:41:45.972Z,2.82
2019-01-04T04:42:45.986Z,2.74
2019-01-04T04:43:45.999Z,2.77
2019-01-04T04:44:46.017Z,2.72
2019-01-04T04:45:46.027Z,2.72
2019-01-04T04:46:46.042Z,2.71
2019-01-04T04:47:46.054Z,2.72
2019-01-04T04:48:46.068Z,2.79
2019-01-04T04:49:46.082Z,2.77
2019-01-04T04:50:46.095Z,2.80
2019-01-04T04:51:46.109Z,2.86
2019-01-04T04:52:46.125Z,2.80
2019-01-04T04:53:46.133Z,2.90
2019-01-04T04:54:46.147Z,2.87
2019-01-04T04:55:46.163Z,2.92
2019-01-04T04:56:46.175Z,2.90
2019-01-04T04:57:46.188Z,2.90
2019-01-04T04:58:46.201Z,2.97
2019-01-04T04:59:46.217Z,2.85
2019-01-04T05:00:46.230Z,2.77
2019-01-04T05:01:46.244Z,2.80
2019-01-04T05:02:46.255Z,2.85
2019-01-04T05:03:46.271Z,2.92
2019-01-04T05:04:47.751Z,2.93
2019-01-04T05:05:46.298Z,2.90
2019-01-04T05:06:46.310Z,2.90
2019-01-04T05:07:46.326Z,2.83
2019-01-04T05:08:46.338Z,2.92
2019-01-04T05:09:46.355Z,2.95
2019-01-04T05:10:46.370Z,2.92
2019-01-04T05:11:46.383Z,2.92
2019-01-04T05:12:46.395Z,2.98
2019-01-04T05:13:46.409Z,2.97
2019-01-04T05:14:46.472Z,3.05
2019-01-04T05:15:46.437Z,2.93
2019-01-04T05:16:46.451Z,2.97
2019-01-04T05:17:46.460Z,3.03
2019-01-04T05:18:46.474Z,2.93
2019-01-04T05:19:46.490Z,3.04
2019-01-04T05:20:46.509Z,3.03
2019-01-04T05:21:46.521Z,2.97
2019-01-04T05:22:47.819Z,3.01
2019-01-04T05:23:46.546Z,2.97
2019-01-04T05:24:46.557Z,3.08
2019-01-04T05:25:46.572Z,3.05
2019-01-04T05:26:46.587Z,3.07
2019-01-04T05:27:46.602Z,3.10
2019-01-04T05:28:46.612Z,3.10
2019-01-04T05:29:46.625Z,3.14
2019-01-04T05:30:46.639Z,3.18
2019-01-04T05:31:46.655Z,3.11
2019-01-04T05:32:46.669Z,3.07
2019-01-04T05:33:46.684Z,3.11
2019-01-04T05:34:46.695Z,3.10
2019-01-04T05:35:46.716Z,3.18
2019-01-04T05:36:46.725Z,3.07
2019-01-04T05:37:46.758Z,3.10
2019-01-04T05:38:46.753Z,3.08
2019-01-04T05:39:46.764Z,3.03
2019-01-04T05:40:46.778Z,3.10
2019-01-04T05:41:46.793Z,3.01
2019-01-04T05:42:46.807Z,3.04
2019-01-04T05:43:46.821Z,3.08
2019-01-04T05:44:46.833Z,3.01
2019-01-04T05:45:46.847Z,3.01
2019-01-04T05:46:46.862Z,2.98
2019-01-04T05:47:46.875Z,3.00
2019-01-04T05:48:46.894Z,3.00
2019-01-04T05:49:46.905Z,2.95
2019-01-04T05:50:46.915Z,2.89
2019-01-04T05:51:46.931Z,3.01
2019-01-04T05:52:46.945Z,2.97
2019-01-04T05:53:46.959Z,3.00
2019-01-04T05:54:46.973Z,2.97
2019-01-04T05:55:46.986Z,2.98
2019-01-04T05:56:47.002Z,3.05
2019-01-04T05:57:47.016Z,3.04
2019-01-04T05:58:47.027Z,3.03
2019-01-04T05:59:47.040Z,3.10
2019-01-04T06:00:47.057Z,2.98
2019-01-04T06:01:47.070Z,3.00
2019-01-04T06:02:47.080Z,3.01
2019-01-04T06:03:47.097Z,3.01
2019-01-04T06:04:47.110Z,2.98
2019-01-04T06:05:47.122Z,3.03
2019-01-04T06:06:47.137Z,3.07
2019-01-04T06:07:47.151Z,3.08
2019-01-04T06:08:47.166Z,3.08
2019-01-04T06:09:47.176Z,3.04
2019-01-04T06:10:47.191Z,3.18
2019-01-04T06:11:47.210Z,3.07
2019-01-04T06:12:47.217Z,3.16
2019-01-04T06:13:47.232Z,3.08
2019-01-04T06:14:47.244Z,3.13
2019-01-04T06:15:47.265Z,3.05
2019-01-04T06:16:47.279Z,3.05
2019-01-04T06:17:47.289Z,3.11
2019-01-04T06:18:47.302Z,3.13
2019-01-04T06:19:47.312Z,3.13
2019-01-04T06:20:47.331Z,3.08
2019-01-04T06:21:47.342Z,3.19
2019-01-04T06:22:47.357Z,3.04
2019-01-04T06:23:47.370Z,3.08
2019-01-04T06:24:47.382Z,3.10
2019-01-04T06:25:47.397Z,3.13
2019-01-04T06:26:47.444Z,3.11
2019-01-04T06:27:47.425Z,3.14
2019-01-04T06:28:47.437Z,3.05
2019-01-04T06:29:47.448Z,3.10
2019-01-04T06:30:47.464Z,3.21
2019-01-04T06:31:47.476Z,3.23
2019-01-04T06:32:47.492Z,3.18
2019-01-04T06:33:47.504Z,3.18
2019-01-04T06:34:47.521Z,3.22
2019-01-04T06:35:47.533Z,3.16
2019-01-04T06:36:47.549Z,3.14
2019-01-04T06:37:47.709Z,3.23
2019-01-04T06:38:47.571Z,3.16
2019-01-04T06:39:47.587Z,3.18
2019-01-04T06:40:47.598Z,3.25
2019-01-04T06:41:47.614Z,3.22
2019-01-04T06:42:47.628Z,3.31
2019-01-04T06:43:47.642Z,3.29
2019-01-04T06:44:47.656Z,3.21
2019-01-04T06:45:47.667Z,3.26
2019-01-04T06:46:47.681Z,3.34
2019-01-04T06:47:47.695Z,3.26
2019-01-04T06:48:47.710Z,3.32
2019-01-04T06:49:47.724Z,3.31
2019-01-04T06:50:47.738Z,3.31
2019-01-04T06:51:47.750Z,3.37
2019-01-04T06:52:47.767Z,3.37
2019-01-04T06:53:47.779Z,3.31
2019-01-04T06:54:47.791Z,3.34
2019-01-04T06:55:47.807Z,3.29
2019-01-04T06:56:47.818Z,3.26
2019-01-04T06:57:47.834Z,3.28
2019-01-04T06:58:47.851Z,3.34
2019-01-04T06:59:47.862Z,3.32
2019-01-04T07:00:47.874Z,3.42
2019-01-04T07:01:47.890Z,3.36
2019-01-04T07:02:47.902Z,3.37
2019-01-04T07:03:47.919Z,3.40
2019-01-04T07:04:47.930Z,3.36
2019-01-04T07:05:47.944Z,3.34
2019-01-04T07:06:47.956Z,3.41
2019-01-04T07:07:47.972Z,3.34
2019-01-04T07:08:47.985Z,3.31
2019-01-04T07:09:47.997Z,3.36
2019-01-04T07:10:48.014Z,3.37
2019-01-04T07:11:48.025Z,3.40
2019-01-04T07:12:48.039Z,3.42
2019-01-04T07:13:48.052Z,3.40
2019-01-04T07:14:48.066Z,3.36
2019-01-04T07:15:48.080Z,3.40
2019-01-04T07:16:48.094Z,3.40
2019-01-04T07:17:48.107Z,3.44
2019-01-04T07:18:48.123Z,3.53
2019-01-04T07:19:48.138Z,3.50
2019-01-04T07:20:48.150Z,3.42
2019-01-04T07:21:48.164Z,3.53
2019-01-04T07:22:48.179Z,3.47
2019-01-04T07:23:48.189Z,3.50
2019-01-04T07:24:48.208Z,3.55
2019-01-04T07:25:48.217Z,3.58
2019-01-04T07:26:48.231Z,3.51
2019-01-04T07:27:48.250Z,3.58
2019-01-04T07:28:48.259Z,3.53
2019-01-04T07:29:48.274Z,3.63
2019-01-04T07:30:48.292Z,3.56
2019-01-04T07:31:48.301Z,3.58
2019-01-04T07:32:48.313Z,3.58
2019-01-04T07:33:48.326Z,3.58
2019-01-04T07:34:48.340Z,3.55
2019-01-04T07:35:48.356Z,3.66
2019-01-04T07:36:48.468Z,3.73
2019-01-04T07:37:48.384Z,3.58
2019-01-04T07:38:48.394Z,3.59
2019-01-04T07:39:48.413Z,3.73
2019-01-04T07:40:48.425Z,3.74
2019-01-04T07:41:48.435Z,3.66
2019-01-04T07:42:48.451Z,3.70
2019-01-04T07:43:48.467Z,3.70
2019-01-04T07:44:48.482Z,3.73
2019-01-04T07:45:48.493Z,3.68
2019-01-04T07:46:48.507Z,3.80
2019-01-04T07:47:48.522Z,3.78
2019-01-04T07:48:48.532Z,3.86
2019-01-04T07:49:48.547Z,3.86
2019-01-04T07:50:48.561Z,3.80
2019-01-04T07:51:48.575Z,3.84
2019-01-04T07:52:48.587Z,3.74
2019-01-04T07:53:48.604Z,3.74
2019-01-04T07:54:48.614Z,3.81
2019-01-04T07:55:48.631Z,3.87
2019-01-04T07:56:48.642Z,3.86
2019-01-04T07:57:48.657Z,3.83
2019-01-04T07:58:48.669Z,3.98
2019-01-04T07:59:48.683Z,3.92
2019-01-04T08:00:48.697Z,3.96
2019-01-04T08:01:48.712Z,4.01
2019-01-04T08:02:48.724Z,3.98
2019-01-04T08:03:48.741Z,4.12
2019-01-04T08:04:48.752Z,4.02
2019-01-04T08:05:48.767Z,3.95
2019-01-04T08:06:48.779Z,3.96
2019-01-04T08:07:48.795Z,4.05
2019-01-04T08:08:48.809Z,4.02
2019-01-04T08:09:48.823Z,3.99
2019-01-04T08:10:48.835Z,4.04
2019-01-04T08:11:48.851Z,4.06
2019-01-04T08:12:48.866Z,4.06
2019-01-04T08:13:48.877Z,4.14
2019-01-04T08:14:48.893Z,4.20
2019-01-04T08:15:48.908Z,4.23
2019-01-04T08:16:48.919Z,4.23
2019-01-04T08:17:48.932Z,4.22
2019-01-04T08:18:49.297Z,4.17
2019-01-04T08:19:48.960Z,4.22
2019-01-04T08:20:48.974Z,4.17
2019-01-04T08:21:48.987Z,4.37
2019-01-04T08:22:49.001Z,4.35
2019-01-04T08:23:49.016Z,4.35
2019-01-04T08:24:49.034Z,4.34
2019-01-04T08:25:49.047Z,4.40
2019-01-04T08:26:49.062Z,4.35
2019-01-04T08:27:49.077Z,4.44
2019-01-04T08:28:49.089Z,4.45
2019-01-04T08:29:49.102Z,4.52
2019-01-04T08:30:49.117Z,4.60
2019-01-04T08:31:49.130Z,4.62
2019-01-04T08:32:49.146Z,4.66
2019-01-04T08:33:49.159Z,4.70
2019-01-04T08:34:49.170Z,4.74
2019-01-04T08:35:49.186Z,4.82
2019-01-04T08:36:49.201Z,4.87
2019-01-04T08:37:49.216Z,4.87
2019-01-04T08:38:49.228Z,4.68
2019-01-04T08:39:49.244Z,4.77
2019-01-04T08:40:49.261Z,4.78
2019-01-04T08:41:49.269Z,4.93
2019-01-04T08:42:49.287Z,4.94
2019-01-04T08:43:49.298Z,4.99
2019-01-04T08:44:49.314Z,5.00
2019-01-04T08:45:49.327Z,5.04
2019-01-04T08:46:49.343Z,5.08
2019-01-04T08:47:49.360Z,5.05
2019-01-04T08:48:49.372Z,5.15
2019-01-04T08:49:49.383Z,5.11
2019-01-04T08:50:49.403Z,5.10
2019-01-04T08:51:49.413Z,5.17
2019-01-04T08:52:49.427Z,5.21
2019-01-04T08:53:49.446Z,5.18
2019-01-04T08:54:49.455Z,5.21
2019-01-04T08:55:49.471Z,5.21
2019-01-04T08:56:49.486Z,5.20
2019-01-04T08:57:49.500Z,5.18
2019-01-04T08:58:49.619Z,5.21
2019-01-04T08:59:49.527Z,5.21
2019-01-04T09:00:49.543Z,5.17
2019-01-04T09:01:49.554Z,5.18
2019-01-04T09:02:49.572Z,5.33
2019-01-04T09:03:49.587Z,5.39
2019-01-04T09:04:49.598Z,5.29
2019-01-04T09:05:49.612Z,5.32
2019-01-04T09:06:49.631Z,5.35
2019-01-04T09:07:49.646Z,5.35
2019-01-04T09:08:49.658Z,5.36
2019-01-04T09:09:49.669Z,5.36
2019-01-04T09:10:49.684Z,5.33
2019-01-04T09:11:49.702Z,5.35
2019-01-04T09:12:49.715Z,5.35
2019-01-04T09:13:49.730Z,5.39
2019-01-04T09:14:49.744Z,5.43
2019-01-04T09:15:49.756Z,5.36
2019-01-04T09:16:49.771Z,5.26
2019-01-04T09:17:49.789Z,5.32
2019-01-04T09:18:49.799Z,5.43
2019-01-04T09:19:49.814Z,5.47
2019-01-04T09:20:49.831Z,5.35
2019-01-04T09:21:49.993Z,5.43
2019-01-04T09:22:49.859Z,5.35
2019-01-04T09:23:49.875Z,5.39
2019-01-04T09:24:49.890Z,5.39
2019-01-04T09:25:49.904Z,5.39
2019-01-04T09:26:49.915Z,5.47
2019-01-04T09:27:49.933Z,5.46
2019-01-04T09:28:49.949Z,5.43
2019-01-04T09:29:49.961Z,5.51
2019-01-04T09:30:49.976Z,5.54
2019-01-04T09:31:49.989Z,5.56
2019-01-04T09:32:50.005Z,5.64
2019-01-04T09:33:50.024Z,5.64
2019-01-04T09:34:50.034Z,5.57
2019-01-04T09:35:50.047Z,5.61
2019-01-04T09:36:50.064Z,5.62
2019-01-04T09:37:50.075Z,5.66
2019-01-04T09:38:50.092Z,5.79
2019-01-04T09:39:50.106Z,5.76
2019-01-04T09:40:50.122Z,5.83
2019-01-04T09:41:50.136Z,5.82
2019-01-04T09:42:50.189Z,5.76
2019-01-04T09:43:50.166Z,5.80
2019-01-04T09:44:50.181Z,5.68
2019-01-04T09:45:50.195Z,5.82
2019-01-04T09:46:50.208Z,5.71
2019-01-04T09:47:50.227Z,5.62
2019-01-04T09:48:50.241Z,5.69
2019-01-04T09:49:50.255Z,5.64
2019-01-04T09:50:50.270Z,5.59
2019-01-04T09:51:50.284Z,5.75
2019-01-04T09:52:50.301Z,5.69
2019-01-04T09:53:50.311Z,5.66
2019-01-04T09:54:50.328Z,5.76
2019-01-04T09:55:50.342Z,5.72
2019-01-04T09:56:50.356Z,5.71
2019-01-04T09:57:50.370Z,5.71
2019-01-04T09:58:50.388Z,5.72
2019-01-04T09:59:50.402Z,5.69
2019-01-04T10:00:50.415Z,5.71
2019-01-04T10:01:50.429Z,5.73
2019-01-04T10:02:50.445Z,5.82
2019-01-04T10:03:50.459Z,5.75
2019-01-04T10:04:50.477Z,5.82
2019-01-04T10:05:50.488Z,5.68
2019-01-04T10:06:50.503Z,5.76
2019-01-04T10:07:50.519Z,5.61
2019-01-04T10:08:50.534Z,5.73
2019-01-04T10:09:50.548Z,5.82
2019-01-04T10:10:50.563Z,5.73
2019-01-04T10:11:50.581Z,5.73
2019-01-04T10:12:50.595Z,5.68
2019-01-04T10:13:50.606Z,5.59
2019-01-04T10:14:50.625Z,5.71
2019-01-04T10:15:50.636Z,5.66
2019-01-04T10:16:50.651Z,5.65
2019-01-04T10:17:50.667Z,5.62
2019-01-04T10:18:50.679Z,5.54
2019-01-04T10:19:50.697Z,5.72
2019-01-04T10:20:50.712Z,5.65
2019-01-04T10:21:50.723Z,5.53
2019-01-04T10:22:50.741Z,5.56
2019-01-04T10:23:50.754Z,5.53
2019-01-04T10:24:50.771Z,5.62
2019-01-04T10:25:50.786Z,5.57
2019-01-04T10:26:50.798Z,5.56
2019-01-04T10:27:50.812Z,5.53
2019-01-04T10:28:50.827Z,5.51
2019-01-04T10:29:50.847Z,5.54
2019-01-04T10:30:50.855Z,5.71
2019-01-04T10:31:50.872Z,5.61
2019-01-04T10:32:50.887Z,5.59
2019-01-04T10:33:50.900Z,5.61
2019-01-04T10:34:50.916Z,5.44
2019-01-04T10:35:50.929Z,5.61
2019-01-04T10:36:50.944Z,5.51
2019-01-04T10:37:50.961Z,5.51
2019-01-04T10:38:50.975Z,5.57
2019-01-04T10:39:50.988Z,5.48
2019-01-04T10:40:51.003Z,5.54
2019-01-04T10:41:51.019Z,5.51
2019-01-04T10:42:51.038Z,5.61
2019-01-04T10:43:51.048Z,5.44
2019-01-04T10:44:51.061Z,5.44
2019-01-04T10:45:51.076Z,5.51
2019-01-04T10:46:51.092Z,5.53
2019-01-04T10:47:51.107Z,5.51
2019-01-04T10:48:51.122Z,5.47
2019-01-04T10:49:51.133Z,5.50
2019-01-04T10:50:51.152Z,5.51
2019-01-04T10:51:51.167Z,5.51
2019-01-04T10:52:51.182Z,5.47
2019-01-04T10:53:51.194Z,5.48
2019-01-04T10:54:51.209Z,5.46
2019-01-04T10:55:51.227Z,5.43
2019-01-04T10:56:51.240Z,5.47
2019-01-04T10:57:51.251Z,5.32
2019-01-04T10:58:51.265Z,5.44
2019-01-04T10:59:51.282Z,5.44
2019-01-04T11:00:51.295Z,5.35
2019-01-04T11:01:51.309Z,5.36
2019-01-04T11:02:51.326Z,5.32
2019-01-04T11:03:51.339Z,5.32
2019-01-04T11:04:51.360Z,5.32
2019-01-04T11:05:51.373Z,5.30
2019-01-04T11:06:51.382Z,5.39
2019-01-04T11:07:51.397Z,5.36
2019-01-04T11:08:51.413Z,5.30
2019-01-04T11:09:51.429Z,5.35
2019-01-04T11:10:51.442Z,5.26
2019-01-04T11:11:51.455Z,5.38
2019-01-04T11:12:51.471Z,5.43
2019-01-04T11:13:51.486Z,5.35
2019-01-04T11:14:51.500Z,5.39
2019-01-04T11:15:51.546Z,5.33
2019-01-04T11:16:51.531Z,5.39
2019-01-04T11:17:51.541Z,5.35
2019-01-04T11:18:51.559Z,5.38
2019-01-04T11:19:51.571Z,5.36
2019-01-04T11:20:51.587Z,5.33
2019-01-04T11:21:51.600Z,5.36
2019-01-04T11:22:51.618Z,5.47
2019-01-04T11:23:51.630Z,5.36
2019-01-04T11:24:51.643Z,5.35
2019-01-04T11:25:51.660Z,5.33
2019-01-04T11:26:51.677Z,5.44
2019-01-04T11:27:51.690Z,5.33
2019-01-04T11:28:51.700Z,5.29
2019-01-04T11:29:51.719Z,5.39
2019-01-04T11:30:51.729Z,5.28
2019-01-04T11:31:51.746Z,5.36
2019-01-04T11:32:51.761Z,5.36
2019-01-04T11:33:51.773Z,5.41
2019-01-04T11:34:51.790Z,5.36
2019-01-04T11:35:51.805Z,5.35
2019-01-04T11:36:51.816Z,5.33
2019-01-04T11:37:51.832Z,5.36
2019-01-04T11:38:51.995Z,5.38
2019-01-04T11:39:51.862Z,5.38
2019-01-04T11:40:51.876Z,5.35
2019-01-04T11:41:51.890Z,5.33
2019-01-04T11:42:51.904Z,5.35
2019-01-04T11:43:51.918Z,5.39
2019-01-04T11:44:51.935Z,5.35
2019-01-04T11:45:51.947Z,5.43
2019-01-04T11:46:51.959Z,5.33
2019-01-04T11:47:51.976Z,5.38
2019-01-04T11:48:51.996Z,5.41
2019-01-04T11:49:52.005Z,5.36
2019-01-04T11:50:52.018Z,5.30
2019-01-04T11:51:52.031Z,5.44
2019-01-04T11:52:52.046Z,5.35
2019-01-04T11:53:52.062Z,5.38
2019-01-04T11:54:52.078Z,5.36
2019-01-04T11:55:52.097Z,5.50
2019-01-04T11:56:52.106Z,5.46
2019-01-04T11:57:52.120Z,5.38
2019-01-04T11:58:52.138Z,5.39
2019-01-04T11:59:52.147Z,5.46
2019-01-04T12:00:52.164Z,5.35
2019-01-04T12:01:52.178Z,5.35
2019-01-04T12:02:52.218Z,5.43
2019-01-04T12:03:52.207Z,5.35
2019-01-04T12:04:52.219Z,5.43
2019-01-04T12:05:52.233Z,5.53
2019-01-04T12:06:52.249Z,5.38
2019-01-04T12:07:52.266Z,5.36
2019-01-04T12:08:52.280Z,5.46
2019-01-04T12:09:52.292Z,5.43
2019-01-04T12:10:52.306Z,5.51
2019-01-04T12:11:52.449Z,5.44
2019-01-04T12:12:52.338Z,5.44
2019-01-04T12:13:52.350Z,5.46
2019-01-04T12:14:52.365Z,5.46
2019-01-04T12:15:52.379Z,5.38
2019-01-04T12:16:52.393Z,5.48
2019-01-04T12:17:52.414Z,5.43
2019-01-04T12:18:52.435Z,5.30
2019-01-04T12:19:52.438Z,5.44
2019-01-04T12:20:52.453Z,5.41
2019-01-04T12:21:52.469Z,5.48
2019-01-04T12:22:52.483Z,5.46
2019-01-04T12:23:52.495Z,5.59
2019-01-04T12:24:52.509Z,5.46
2019-01-04T12:25:52.525Z,5.38
2019-01-04T12:26:52.541Z,5.47
2019-01-04T12:27:52.555Z,5.35
2019-01-04T12:28:52.567Z,5.39
2019-01-04T12:29:52.590Z,5.46
2019-01-04T12:30:52.598Z,5.41
2019-01-04T12:31:52.610Z,5.32
2019-01-04T12:32:52.629Z,5.54
2019-01-04T12:33:52.641Z,5.47
2019-01-04T12:34:52.656Z,5.61
2019-01-04T12:35:52.672Z,5.38
2019-01-04T12:36:52.684Z,5.51
2019-01-04T12:37:52.701Z,5.48
2019-01-04T12:38:52.717Z,5.50
2019-01-04T12:39:52.727Z,5.59
2019-01-04T12:40:52.747Z,5.50
2019-01-04T12:41:52.759Z,5.50
2019-01-04T12:42:52.771Z,5.50
2019-01-04T12:43:52.787Z,5.48
2019-01-04T12:44:52.804Z,5.50
2019-01-04T12:45:52.814Z,5.47
2019-01-04T12:46:52.830Z,5.56
2019-01-04T12:47:52.846Z,5.51
2019-01-04T12:48:52.860Z,5.56
2019-01-04T12:49:52.874Z,5.59
2019-01-04T12:50:52.890Z,5.54
2019-01-04T12:51:52.902Z,5.50
2019-01-04T12:52:52.924Z,5.44
2019-01-04T12:53:52.931Z,5.50
2019-01-04T12:54:52.948Z,5.46
2019-01-04T12:55:52.963Z,5.47
2019-01-04T12:56:52.977Z,5.47
2019-01-04T12:57:52.990Z,5.47
2019-01-04T12:58:53.004Z,5.56
2019-01-04T12:59:53.022Z,5.43
2019-01-04T13:00:53.034Z,5.54
2019-01-04T13:01:53.052Z,5.54
2019-01-04T13:02:53.069Z,5.47
2019-01-04T13:03:53.082Z,5.47
2019-01-04T13:04:53.093Z,5.54
2019-01-04T13:05:53.110Z,5.46
2019-01-04T13:06:53.126Z,5.48
2019-01-04T13:07:53.139Z,5.48
2019-01-04T13:08:53.154Z,5.47
2019-01-04T13:09:53.167Z,5.46
2019-01-04T13:10:53.180Z,5.59
2019-01-04T13:11:53.198Z,5.53
2019-01-04T13:12:53.212Z,5.48
2019-01-04T13:13:53.226Z,5.56
2019-01-04T13:14:53.443Z,5.59
2019-01-04T13:15:53.256Z,5.53
2019-01-04T13:16:53.270Z,5.59
2019-01-04T13:17:53.282Z,5.56
2019-01-04T13:18:53.307Z,5.65